Impacts METAR Board
IDs:

KDCA - Washington/National, VA, US

Updated at: 0700 UTC 24 Jun 2018
Potential Impact None Slight Moderate High
Time 23/19Z 23/20Z 23/21Z 23/22Z 23/23Z 24/00Z 24/01Z 24/02Z 24/03Z 24/04Z 24/05Z 24/06Z 24/07Z
Temp78 80 80 80 79 76 75 75 74 73 73 73 73
Dewpt70 70 69 69 70 72 71 70 71 70 70 70 70
Altim29.80 29.80 29.78 29.78 29.79 29.80 29.81 29.81 29.83 29.83 29.84 29.84 29.84
VIS10 10 10 10 10 9 8 10 10 10 10 9 9
CIG23 32 35 200 120 95 50 -- -- -- -- -- 70
CoverBKNOVCBKNBKNBKNBKNBKNFEWFEWFEWSCTSCTBKN
FltCatMVFRVFRVFRVFRVFRVFRVFRVFRVFRVFRVFRVFRVFR
WX-----------RA-RA------------
WDir1700170019021017003200000
WSpd6 5 5 0 5 3 4 0 5 0 0 0 0
WGst-- -- -- -- -- -- -- -- -- -- -- -- --
Raw hourly METARs
KDCA 231852Z 17006KT 10SM BKN023 BKN032 BKN120 BKN150 26/21 A2980 RMK AO2 LTG DSNT SE SLP089 CB DSNT SE-S MOV E T02560211
KDCA 231952Z VRB05KT 10SM BKN032 OVC100 27/21 A2980 RMK AO2 SLP090 T02670211
KDCA 232052Z 17005KT 10SM BKN035 BKN100 27/21 A2978 RMK AO2 SLP084 T02670206 58006
KDCA 232152Z COR 00000KT 10SM FEW035 SCT100 BKN200 27/21 A2978 RMK AO2 SLP083 T02670206
KDCA 232303Z 19005KT 10SM SCT040 SCT100 BKN120 26/21 A2979 RMK AO2 RAE02 P0000 T02610211
KDCA 232352Z 21003KT 9SM -RA SCT040 BKN095 BKN120 24/22 A2980 RMK AO2 LTG DSNT N AND NE RAE02B10 SLP091 P0004 60004 T02440222 10272 20244 53007
KDCA 240052Z 17004KT 8SM -RA BKN050CB BKN090 BKN250 24/22 A2981 RMK AO2 RAE06B31 SLP093 CB DSNT SE-S MOV E CB VC NW MOV E P0001 T02390217
KDCA 240152Z 00000KT 10SM FEW045 FEW070 24/21 A2981 RMK AO2 RAE00 SLP096 CB DSNT N MOV E P0000 T02390211
KDCA 240252Z 32005KT 10SM FEW040 FEW070 23/22 A2983 RMK AO2 SLP102 60001 T02330217 53011
KDCA 240352Z 00000KT 10SM FEW046 23/21 A2983 RMK AO2 SLP101 T02280211
KDCA 240452Z 00000KT 10SM SCT065 23/21 A2984 RMK AO2 SLP104 T02280211 402720194
KDCA 240552Z 00000KT 9SM FEW010 FEW040 SCT060 23/21 A2984 RMK AO2 SLP104 60001 T02280211 10250 20222 53002
KDCA 240652Z 00000KT 9SM FEW004 BKN070 23/21 A2984 RMK AO2 SLP104 T02280211



Page loaded:  07:11 UTC  |   12:11 AM Pacific  |   01:11 AM Mountain  |   02:11 AM Central  |   03:11 AM Eastern

 

ADVISORIES

FORECASTS

FORECASTS

OBSERVATIONS

USER TOOLS

ABOUT US